Share

Burlington, CO

Kit Carson County (KITR) Elev 4216 ft | 39.24 °N, 102.28 °W | Change Station

Current weather conditions updated 27 minutes ago

Mostly Cloudy
Mostly Cloudy
60 °F
Feels Like 60 °F
N
9
Wind Variable Wind from East
Sunrise 6:06 AM
Sunset 7:30 PM
Moon Waning Gibbous

Tomorrow is forecast to be Cooler than today.

Pressure 29.91 in
Visibility 10.0 miles
Clouds Mostly Cloudy 9500 ft
Dew Point 45 °F
Humidity 57%
Rainfall 0.00 in
Snow Depth Not available.
UV 0 out of 16
Pollen 11.00 out of 12
Air Quality Not available.
Flu Activity Sporadic
METAR KITR 200153Z AUTO 09008KT 10SM BKN095 16/07 A3001 RMK AO2 SLP128 T01560072

More Conditions Fewer Conditions

Pressure 29.91 in
Visibility 10.0 miles
Clouds Mostly Cloudy 9500 ft
Dew Point 45 °F
Humidity 57%
Rainfall 0.00 in
Snow Depth Not available.
UV 0 out of 16
Pollen 11.00 out of 12
Air Quality Not available.
Flu Activity Sporadic
METAR KITR 200153Z AUTO 09008KT 10SM BKN095 16/07 A3001 RMK AO2 SLP128 T01560072

More Conditions Fewer Conditions

10-Day Weather Forecast

Almanac

Astronomy

Apr. 19, 2014 Rise Set
Actual Time 6:06 AM MDT 7:30 PM MDT
Civil Twilight 5:38 AM MDT 7:58 PM MDT
Nautical Twilight 5:04 AM MDT 8:32 PM MDT
Astronomical Twilight 4:29 AM MDT 9:07 PM MDT
Moon No Moon Rise 9:27 AM MDT (4/19)
Length of Visible Light 14h 20m
Length of Day
13h 24m
Tomorrow will be 2m 25s longer.
Waning Gibbous, 74% of the Moon is Illuminated
Today
Waning Gibbous
Apr 22
Last Quarter
Apr 29
New
May 6
First Quarter
May 14
Full

Today's Extremes

State Highs State Lows

Community

  • Cherry Blossoms
    Cherry Blossoms
  • White-Crowned Sparrow
    White-Crowned Sparrow
  • New Day
    New Day
  • Happy Easter!
    Happy Easter!
  • poppy bloom near Mazar-e-Sharif
    poppy bloom near Mazar-e-Sharif

WunderPhotos

Upload Photos

1,703,043 photos uploaded!

WunderBlogs® & News

By Dr. Jeff Masters
Director of Meteorology, Weather Underground
By Kari Strenfel
Meteorologist, Weather Underground
By Christopher C. Burt
Weather Historian, Weather Underground
April 19, 2014
April 19, 2014
April 19, 2014

Nearby

Snow Depth

Station Depth Elevation
Glen Cove 14 in 11460 ft
Niwot 50 in 9910 ft
University Camp 76 in 10300 ft
Wild Basin 55 in 9560 ft
Jackwhacker Gulch 47 in 10960 ft

Coastal Water Temperatures

Place Temperature
No Stations Reporting

Earthquake Activity

City Distance Mag. Time & Date
No recent earthquake activity has been reported nearby.
Minimum magnitude displayed is 2.5.

Nearby Weather Stations

Station Location Temp. Dew Point Humidity Wind Precip. Elev Updated Type
Illinois Street, Stratton, CO 54.5 °F 44 °F 69% North  at  6.0 mph 0.00 in / hr 4419 ft 8:20 PM MDT Rapid Fire

Show More Stations Show Fewer Stations

What do you think?

We're not finished. Please let us know what you like, what you don't like, and what you are still missing.